This is the latest recevied weather packets stored in our database for station/object KC9NPJ-13. If no packets are shown the sender has not sent any weather packets the latest 10 day(s).
| Time | Temp. | Humidity | Pressure | Rain* | Wind** | Luminosity | Snow |
|---|---|---|---|---|---|---|---|
| 1777841049 | 19.44° C | 43% | 1014.4 hPa | 0 mm | - | - | - |
| 1777840749 | 19.44° C | 46% | 1014.4 hPa | 0 mm | - | - | - |
| 1777840448 | 19.44° C | 45% | 1014.5 hPa | 0 mm | - | - | - |
| 1777840148 | 19.44° C | 46% | 1014.6 hPa | 0 mm | - | - | - |
| 1777839849 | 19.44° C | 46% | 1014.7 hPa | 0 mm | - | - | - |
| 1777839549 | 19.44° C | 48% | 1014.8 hPa | 0 mm | - | - | - |
| 1777839249 | 19.44° C | 48% | 1014.9 hPa | 0 mm | - | - | - |
| 1777838949 | 19.44° C | 47% | 1015.1 hPa | 0 mm | - | - | - |
| 1777838649 | 19.44° C | 49% | 1015.3 hPa | 0 mm | - | - | - |
| 1777838349 | 18.89° C | 47% | 1015.6 hPa | 0 mm | - | - | - |
| 1777838049 | 18.89° C | 51% | 1016 hPa | 0 mm | - | - | - |
| 1777837749 | 18.89° C | 48% | 1016.1 hPa | 0 mm | - | - | - |
| 1777837449 | 18.89° C | 50% | 1016.3 hPa | 0 mm | - | - | - |
| 1777837149 | 18.89° C | 50% | 1016.3 hPa | 0 mm | - | - | - |
| 1777836849 | 18.89° C | 48% | 1016.5 hPa | 0 mm | - | - | - |
| 1777836549 | 18.33° C | 48% | 1016.5 hPa | 0 mm | - | - | - |
| 1777836249 | 18.33° C | 48% | 1016.6 hPa | 0 mm | - | - | - |
| 1777835949 | 18.89° C | 53% | 1016.8 hPa | 0 mm | - | - | - |
| 1777835649 | 18.33° C | 50% | 1016.8 hPa | 0 mm | - | - | - |
| 1777835349 | 18.33° C | 53% | 1016.9 hPa | 0 mm | - | - | - |
| 1777835049 | 17.78° C | 48% | 1016.9 hPa | 0 mm | - | - | - |
| 1777834749 | 18.33° C | 50% | 1017 hPa | 0 mm | - | - | - |
| 1777834449 | 18.33° C | 50% | 1017 hPa | 0 mm | - | - | - |
| 1777834149 | 18.33° C | 50% | 1017 hPa | 0 mm | - | - | - |
| 1777833849 | 17.78° C | 52% | 1017.3 hPa | 0 mm | - | - | - |
* Rain latest hour (hover to see other rain measurements)
** Current wind speed in m/s (hover to see current wind gust speed)